WXM80 ListenWXM80 Stop

You find our weather info also at:

UK Metoffice

WeatherCloud

Weather Underground

Northeastern Weather Network

AWEKAS

Citizen Weather Observer Program (CWOP)

HAMweather, WeatherForYou, PWS Weather


Weather Underground History page Text

Daily Summary for February 16, 2018 Units:  Metric    English   Both
« Previous Day
Next Day »
Daily Weekly Monthly Yearly Custom
  High: Low: Average:
Temperature: 13.8 °C 2.5 °C 9.6 °C
Dew Point: 12.6 °C -2.2 °C 7.6 °C
Humidity: 98 % 70 % 87 %
Wind Speed: 15.4 km/h 0 km/h 4.5 km/h
Wind Gust: 29.6 km/h - -
Wind:- - West
Pressure: 1012.8 hPa 992.8 hPa -
Precipitation: 0 mm    
Historical Graphs
 
 
Tabular Data for February 16, 2018
Time Temperature Dew Point Pressure Wind Wind Speed Wind Gust Humidity Rainfall Rate (Hourly)
00:01 12.4 °C 11.7 °C 995.5 hPa SW 4.7 km/h 9.3 km/h 95 % 0 mm
00:06 12.5 °C 11.7 °C 995.5 hPa SW 8 km/h 12.9 km/h 95 % 0 mm
00:11 12.6 °C 11.8 °C 995.5 hPa SW 4.8 km/h 12.9 km/h 95 % 0 mm
00:16 12.6 °C 12 °C 995.5 hPa SW 5.6 km/h 9.3 km/h 96 % 0 mm
00:21 12.7 °C 12.1 °C 995.1 hPa SSW 3.7 km/h 7.4 km/h 96 % 0 mm
00:26 12.8 °C 12.2 °C 994.8 hPa SW 6.1 km/h 13 km/h 96 % 0 mm
00:31 12.9 °C 12.3 °C 994.5 hPa SSW 5.1 km/h 11.1 km/h 96 % 0 mm
00:36 13 °C 12.4 °C 994.5 hPa SSW 3.2 km/h 9.3 km/h 96 % 0 mm
00:41 13.1 °C 12.4 °C 994.1 hPa SSW 3.9 km/h 5.6 km/h 96 % 0 mm
00:46 13.1 °C 12.5 °C 994.1 hPa South 5 km/h 9.7 km/h 96 % 0 mm
00:51 13.1 °C 12.5 °C 993.8 hPa SSW 1.6 km/h 6.4 km/h 96 % 0 mm
00:56 13.2 °C 12.6 °C 993.5 hPa South 6.1 km/h 9.3 km/h 96 % 0 mm
01:01 13.2 °C 12.6 °C 993.5 hPa SSE 1.9 km/h 6.4 km/h 96 % 0 mm
01:06 13.2 °C 12.6 °C 993.1 hPa South 0.6 km/h 1.6 km/h 96 % 0 mm
01:11 13.2 °C 12.6 °C 993.1 hPa South 0.6 km/h 3.2 km/h 96 % 0 mm
01:16 13.2 °C 12.6 °C 993.5 hPa South 0.6 km/h 1.9 km/h 96 % 0 mm
01:21 13.2 °C 12.6 °C 993.1 hPa WSW 1.1 km/h 5.6 km/h 96 % 0 mm
01:26 13.2 °C 12.6 °C 993.1 hPa WSW 0.5 km/h 3.7 km/h 96 % 0 mm
01:31 12.7 °C 11.9 °C 993.1 hPa West 2.3 km/h 3.7 km/h 95 % 0 mm
01:36 12.3 °C 11.4 °C 993.1 hPa NW 3.9 km/h 5.6 km/h 94 % 0 mm
01:41 11.8 °C 10.3 °C 993.5 hPa NW 3.1 km/h 5.6 km/h 91 % 0 mm
01:46 11.4 °C 9.8 °C 993.5 hPa Calm   1.9 km/h 90 % 0 mm
01:52 11.1 °C 9.5 °C 993.8 hPa Calm     90 % 0 mm
02:02 10.7 °C 9.3 °C 993.8 hPa NW 0.5 km/h 1.9 km/h 91 % 0 mm
02:07 10.4 °C 9.1 °C 993.8 hPa Calm     91 % 0 mm
02:12 10.2 °C 8.8 °C 993.8 hPa Calm     91 % 0 mm
02:17 10.1 °C 8.7 °C 993.8 hPa Calm     91 % 0 mm
02:22 9.9 °C 8.6 °C 993.8 hPa Calm     91 % 0 mm
02:27 9.8 °C 8.6 °C 993.8 hPa Calm     92 % 0 mm
02:32 9.7 °C 8.4 °C 993.8 hPa Calm     92 % 0 mm
02:37 9.5 °C 8.3 °C 993.8 hPa Calm     92 % 0 mm
02:42 9.4 °C 8.2 °C 993.5 hPa Calm     92 % 0 mm
02:47 9.4 °C 8.3 °C 993.5 hPa Calm     93 % 0 mm
02:52 9.3 °C 8.3 °C 993.1 hPa NW 1.6 km/h 3.7 km/h 93 % 0 mm
02:57 9.3 °C 8.3 °C 993.1 hPa Calm   1.6 km/h 93 % 0 mm
03:02 9.3 °C 8.2 °C 992.8 hPa NW 0.6 km/h 3.7 km/h 93 % 0 mm
03:07 9.4 °C 8.4 °C 992.8 hPa SW 0.6 km/h 1.9 km/h 94 % 0 mm
03:12 9.7 °C 8.9 °C 992.8 hPa SW 1.4 km/h 6.4 km/h 95 % 0 mm
03:17 9.9 °C 9.3 °C 992.8 hPa WSW 1.4 km/h 5.6 km/h 96 % 0 mm
03:22 10.2 °C 9.6 °C 992.8 hPa WSW 4.3 km/h 8 km/h 96 % 0 mm
03:28 10.6 °C 10.2 °C 993.1 hPa WSW 9.5 km/h 13 km/h 97 % 0 mm
03:33 10.9 °C 10.4 °C 992.8 hPa WSW 1.3 km/h 3.7 km/h 97 % 0 mm
03:38 11.2 °C 10.7 °C 992.8 hPa SW 4 km/h 6.4 km/h 97 % 0 mm
03:43 11.3 °C 10.9 °C 993.1 hPa SW 5.5 km/h 8 km/h 97 % 0 mm
03:48 11.4 °C 11 °C 993.1 hPa SW 0.3 km/h 3.7 km/h 97 % 0 mm
03:53 11.6 °C 11.1 °C 993.5 hPa WSW 0.5 km/h 5.6 km/h 97 % 0 mm
03:58 11.7 °C 11.2 °C 993.1 hPa West 0.2 km/h 3.7 km/h 97 % 0 mm
04:03 11.7 °C 11.3 °C 993.5 hPa Calm     97 % 0 mm
04:08 11.7 °C 11.2 °C 993.1 hPa Calm     97 % 0 mm
04:13 11.5 °C 11.1 °C 992.8 hPa Calm     97 % 0 mm
04:18 11.4 °C 11 °C 992.8 hPa Calm     97 % 0 mm
04:23 11.3 °C 10.9 °C 992.8 hPa Calm     97 % 0 mm
04:28 11.2 °C 10.8 °C 992.8 hPa Calm     97 % 0 mm
04:33 11.2 °C 10.7 °C 992.8 hPa Calm     97 % 0 mm
04:39 11.1 °C 10.7 °C 993.1 hPa Calm     97 % 0 mm
04:44 11 °C 10.6 °C 993.1 hPa Calm     97 % 0 mm
04:49 10.9 °C 10.3 °C 993.1 hPa West 0.5 km/h 1.9 km/h 96 % 0 mm
04:54 10.7 °C 10.1 °C 992.8 hPa WNW 0.3 km/h 1.9 km/h 96 % 0 mm
04:59 10.6 °C 9.9 °C 992.8 hPa Calm     96 % 0 mm
05:04 10.4 °C 9.8 °C 992.8 hPa Calm     96 % 0 mm
05:09 10.3 °C 9.7 °C 992.8 hPa Calm     96 % 0 mm
05:14 10.2 °C 9.6 °C 992.8 hPa Calm     96 % 0 mm
05:19 10.1 °C 9.5 °C 992.8 hPa Calm     96 % 0 mm
05:24 10.1 °C 9.4 °C 992.8 hPa Calm     96 % 0 mm
05:29 9.9 °C 9.3 °C 992.8 hPa Calm     96 % 0 mm
05:34 9.9 °C 9.3 °C 992.8 hPa Calm     96 % 0 mm
05:39 9.8 °C 9.2 °C 992.8 hPa Calm     96 % 0 mm
05:44 9.8 °C 9.2 °C 992.8 hPa WNW 0.2 km/h   96 % 0 mm
05:49 9.8 °C 9.2 °C 993.1 hPa Calm     96 % 0 mm
05:55 9.8 °C 9.2 °C 993.1 hPa Calm     96 % 0 mm
06:00 9.8 °C 9.2 °C 993.1 hPa Calm     96 % 0 mm
06:05 9.7 °C 9.1 °C 993.1 hPa Calm     96 % 0 mm
06:10 9.7 °C 9.1 °C 993.5 hPa NW 4.7 km/h 14.8 km/h 96 % 0 mm
06:15 9.7 °C 9.1 °C 993.5 hPa WNW 2.6 km/h 5.6 km/h 96 % 0 mm
06:20 9.6 °C 9 °C 993.5 hPa Calm   1.9 km/h 96 % 0 mm
06:25 9.6 °C 9 °C 993.5 hPa WSW 2.4 km/h 5.6 km/h 96 % 0 mm
06:30 9.6 °C 9 °C 993.5 hPa WSW 2.4 km/h 3.7 km/h 96 % 0 mm
06:35 9.6 °C 9 °C 993.5 hPa WSW 0.5 km/h 3.2 km/h 96 % 0 mm
06:40 9.6 °C 9 °C 993.1 hPa WSW 0.5 km/h 3.7 km/h 96 % 0 mm
06:45 9.7 °C 9.1 °C 993.1 hPa WSW 0.2 km/h 1.9 km/h 96 % 0 mm
06:50 9.7 °C 9.3 °C 993.1 hPa WSW 0.3 km/h 5.6 km/h 97 % 0 mm
06:55 9.8 °C 9.4 °C 992.8 hPa WSW 2.3 km/h 3.7 km/h 97 % 0 mm
07:00 9.9 °C 9.5 °C 993.5 hPa WSW 1.6 km/h 3.2 km/h 97 % 0 mm
07:05 10.1 °C 9.6 °C 993.5 hPa WSW 1.9 km/h 5.6 km/h 97 % 0 mm
07:10 10.2 °C 9.8 °C 993.8 hPa WSW 1 km/h 4.8 km/h 97 % 0 mm
07:15 10.5 °C 10.1 °C 993.8 hPa WNW 6 km/h 9.3 km/h 97 % 0 mm
07:20 11 °C 10.7 °C 994.1 hPa NNW 7.1 km/h 14.8 km/h 98 % 0 mm
07:26 11.1 °C 10.8 °C 994.5 hPa North 4.8 km/h 11.3 km/h 98 % 0 mm
07:31 10.8 °C 10.4 °C 994.5 hPa NNW 4.8 km/h 16.1 km/h 97 % 0 mm
07:36 10.6 °C 10.2 °C 994.8 hPa NNW 8 km/h 11.3 km/h 97 % 0 mm
07:41 10.4 °C 9.9 °C 994.8 hPa North 8 km/h 12.9 km/h 97 % 0 mm
07:46 10.3 °C 9.8 °C 994.8 hPa North 1.6 km/h 8 km/h 97 % 0 mm
07:51 10.2 °C 9.7 °C 994.8 hPa North 1.6 km/h 6.4 km/h 97 % 0 mm
07:56 10.1 °C 9.7 °C 995.1 hPa Calm   4.8 km/h 97 % 0 mm
08:01 10.1 °C 9.7 °C 994.8 hPa North 0.3 km/h 3.7 km/h 97 % 0 mm
08:06 10.1 °C 9.6 °C 994.8 hPa North 2.3 km/h 5.6 km/h 97 % 0 mm
08:11 10.1 °C 9.6 °C 994.8 hPa Calm     97 % 0 mm
08:16 10.1 °C 9.6 °C 994.8 hPa Calm     97 % 0 mm
08:21 10.1 °C 9.6 °C 995.1 hPa Calm     97 % 0 mm
08:26 10.1 °C 9.6 °C 995.1 hPa Calm     97 % 0 mm
08:31 10.1 °C 9.7 °C 994.8 hPa Calm     97 % 0 mm
08:36 10.2 °C 9.7 °C 994.8 hPa Calm     97 % 0 mm
08:41 10.2 °C 9.7 °C 994.8 hPa Calm     97 % 0 mm
08:46 10.3 °C 9.8 °C 994.5 hPa Calm     97 % 0 mm
08:51 10.3 °C 9.9 °C 994.5 hPa Calm     97 % 0 mm
08:56 10.4 °C 9.9 °C 994.1 hPa Calm     97 % 0 mm
09:01 10.4 °C 10 °C 994.5 hPa Calm     97 % 0 mm
09:06 10.5 °C 10.1 °C 994.5 hPa Calm     97 % 0 mm
09:11 10.6 °C 10.1 °C 994.1 hPa Calm     97 % 0 mm
09:17 10.7 °C 10.2 °C 994.1 hPa Calm     97 % 0 mm
09:22 10.8 °C 10.3 °C 993.8 hPa East 2.6 km/h 3.7 km/h 97 % 0 mm
09:27 10.9 °C 10.4 °C 993.8 hPa SE 0.5 km/h 3.2 km/h 97 % 0 mm
09:32 10.9 °C 10.5 °C 993.8 hPa SE 0.3 km/h 3.7 km/h 97 % 0 mm
09:37 10.9 °C 10.5 °C 993.8 hPa SE 2.1 km/h 5.6 km/h 97 % 0 mm
09:42 11.1 °C 10.6 °C 994.1 hPa SSW 4 km/h 5.6 km/h 97 % 0 mm
09:47 11.1 °C 10.7 °C 994.1 hPa Calm     97 % 0 mm
09:52 11.2 °C 10.7 °C 993.8 hPa SSW 1.4 km/h 3.7 km/h 97 % 0 mm
09:57 11.3 °C 11 °C 993.8 hPa Calm   3.7 km/h 98 % 0 mm
10:02 11.4 °C 10.9 °C 994.1 hPa SW 0.5 km/h 3.2 km/h 97 % 0 mm
10:07 11.6 °C 11.1 °C 994.1 hPa SW 2.4 km/h 7.4 km/h 97 % 0 mm
10:12 11.7 °C 11.4 °C 994.1 hPa SW 0.2 km/h 1.9 km/h 98 % 0 mm
10:17 11.8 °C 11.5 °C 994.5 hPa WSW 4.3 km/h 5.6 km/h 98 % 0 mm
10:22 12 °C 11.7 °C 994.5 hPa SW 1.4 km/h 4.8 km/h 98 % 0 mm
10:27 12.1 °C 11.8 °C 994.5 hPa WSW 3.9 km/h 9.7 km/h 98 % 0 mm
10:32 12.2 °C 11.9 °C 994.5 hPa SW 4.8 km/h 6.4 km/h 98 % 0 mm
10:37 12.3 °C 12 °C 994.1 hPa SW 6.4 km/h 6.4 km/h 98 % 0 mm
10:43 12.4 °C 12.1 °C 994.1 hPa SW 5.1 km/h 11.1 km/h 98 % 0 mm
10:48 12.5 °C 12.2 °C 994.1 hPa WSW 6.9 km/h 13 km/h 98 % 0 mm
10:53 12.6 °C 12.2 °C 994.5 hPa West 1 km/h 5.6 km/h 98 % 0 mm
10:58 12.6 °C 12.3 °C 994.5 hPa West 6.4 km/h 12.9 km/h 98 % 0 mm
11:03 12.7 °C 12.3 °C 994.5 hPa SW 8 km/h 13 km/h 98 % 0 mm
11:08 12.7 °C 12.3 °C 994.8 hPa SW 3.1 km/h 13 km/h 97 % 0 mm
11:13 12.8 °C 12.3 °C 994.8 hPa South 8.2 km/h 16.1 km/h 97 % 0 mm
11:18 12.9 °C 12.3 °C 994.8 hPa West 6.6 km/h 13 km/h 96 % 0 mm
11:23 13 °C 12.4 °C 994.5 hPa WSW 7.1 km/h 9.3 km/h 96 % 0 mm
11:28 13.1 °C 12.3 °C 994.5 hPa West 3.9 km/h 16.1 km/h 95 % 0 mm
11:33 13.1 °C 12.2 °C 994.5 hPa WSW 9.3 km/h 14.5 km/h 94 % 0 mm
11:38 13.2 °C 11.9 °C 994.8 hPa WSW 8.4 km/h 13 km/h 92 % 0 mm
11:43 13.2 °C 11.7 °C 995.5 hPa WSW 6.6 km/h 11.1 km/h 91 % 0 mm
11:48 13.2 °C 11.6 °C 995.5 hPa West 11.1 km/h 18.5 km/h 90 % 0 mm
11:53 13.1 °C 11.3 °C 995.5 hPa SW 6.6 km/h 9.7 km/h 89 % 0 mm
11:58 13.1 °C 11.2 °C 994.5 hPa SW 1.9 km/h 11.1 km/h 88 % 0 mm
12:03 13.1 °C 11.2 °C 994.5 hPa West 0.8 km/h 9.3 km/h 88 % 0 mm
12:08 13.2 °C 11.2 °C 994.5 hPa WNW 6.1 km/h 14.8 km/h 88 % 0 mm
12:13 13.2 °C 11.2 °C 994.5 hPa West 5.8 km/h 16.7 km/h 88 % 0 mm
12:18 13.2 °C 11.1 °C 994.5 hPa West 6.6 km/h 13 km/h 87 % 0 mm
12:24 13.3 °C 11.2 °C 994.5 hPa West 2.3 km/h 3.7 km/h 87 % 0 mm
12:34 13.4 °C 11.1 °C 994.8 hPa West 5 km/h 7.4 km/h 86 % 0 mm
12:39 13.4 °C 11.3 °C 994.8 hPa WNW 1.1 km/h 9.3 km/h 87 % 0 mm
12:44 13.5 °C 11.4 °C 994.5 hPa WSW 5.6 km/h 9.3 km/h 87 % 0 mm
12:49 13.6 °C 11.3 °C 994.5 hPa WNW 6.6 km/h 13 km/h 86 % 0 mm
12:54 13.6 °C 11.3 °C 994.5 hPa WSW 3.1 km/h 7.4 km/h 86 % 0 mm
12:59 13.7 °C 11.2 °C 994.5 hPa WSW 2.1 km/h 8 km/h 85 % 0 mm
13:04 13.7 °C 11.2 °C 994.5 hPa WSW 2.1 km/h 5.6 km/h 85 % 0 mm
13:09 13.7 °C 11.2 °C 994.5 hPa WSW 2.9 km/h 5.6 km/h 85 % 0 mm
13:14 13.7 °C 11.1 °C 994.5 hPa West 9 km/h 13 km/h 84 % 0 mm
13:19 13.7 °C 11.2 °C 994.5 hPa West 3.7 km/h 11.1 km/h 85 % 0 mm
13:24 13.8 °C 11.3 °C 994.5 hPa West 6.9 km/h 11.1 km/h 85 % 0 mm
13:29 13.8 °C 11.3 °C 994.5 hPa WSW 2.6 km/h 5.6 km/h 85 % 0 mm
13:34 13.8 °C 11.3 °C 994.5 hPa WSW 0.6 km/h 5.6 km/h 85 % 0 mm
13:39 13.8 °C 11.3 °C 994.1 hPa SW 0.6 km/h 3.7 km/h 85 % 0 mm
13:45 13.8 °C 11.2 °C 994.5 hPa WSW 4.7 km/h 7.4 km/h 84 % 0 mm
13:50 13.8 °C 11.2 °C 994.5 hPa WSW 1.8 km/h 5.6 km/h 84 % 0 mm
13:55 13.8 °C 11.3 °C 994.5 hPa WSW 2.4 km/h 5.6 km/h 85 % 0 mm
14:00 13.8 °C 11.1 °C 994.5 hPa West 1.8 km/h 5.6 km/h 84 % 0 mm
14:05 13.8 °C 11.3 °C 994.5 hPa WSW 1.4 km/h 6.4 km/h 85 % 0 mm
14:10 13.8 °C 11.3 °C 994.8 hPa SW 6.3 km/h 7.4 km/h 85 % 0 mm
14:15 13.8 °C 11.1 °C 994.8 hPa WSW 3.7 km/h 9.3 km/h 84 % 0 mm
14:20 13.8 °C 11.2 °C 995.1 hPa WNW 4 km/h 11.1 km/h 84 % 0 mm
14:25 13.8 °C 11.1 °C 995.1 hPa WNW 7.7 km/h 13 km/h 84 % 0 mm
14:30 13.7 °C 10.3 °C 995.5 hPa West 6.3 km/h 11.1 km/h 80 % 0 mm
14:35 13.6 °C 9.8 °C 995.5 hPa WNW 6.6 km/h 16.7 km/h 78 % 0 mm
14:40 13.4 °C 9.5 °C 995.5 hPa West 6.8 km/h 14.8 km/h 77 % 0 mm
14:45 13.3 °C 9.1 °C 995.8 hPa WNW 6.6 km/h 14.8 km/h 76 % 0 mm
14:50 13.1 °C 8.7 °C 995.8 hPa West 12.2 km/h 18.5 km/h 75 % 0 mm
14:55 12.9 °C 8.8 °C 996.2 hPa WNW 8.4 km/h 20.4 km/h 76 % 0 mm
15:00 12.7 °C 9 °C 996.2 hPa West 5.3 km/h 14.5 km/h 78 % 0 mm
15:05 12.5 °C 8.8 °C 996.2 hPa WSW 7.1 km/h 9.7 km/h 78 % 0 mm
15:10 12.3 °C 8.8 °C 996.5 hPa NW 12.6 km/h 22.2 km/h 79 % 0 mm
15:15 12.1 °C 8.5 °C 996.8 hPa NNW 8.5 km/h 22.2 km/h 79 % 0 mm
15:20 11.6 °C 7.8 °C 997.2 hPa WNW 8 km/h 20.9 km/h 78 % 0 mm
15:25 10.9 °C 7.7 °C 997.5 hPa WNW 8 km/h 20.9 km/h 80 % 0 mm
15:31 10.5 °C 7.4 °C 997.5 hPa WNW 8 km/h 19.3 km/h 81 % 0 mm
15:36 10.2 °C 7.4 °C 997.5 hPa WNW 4.8 km/h 19.3 km/h 83 % 0 mm
15:41 9.9 °C 7.5 °C 997.5 hPa WNW 11.6 km/h 18.5 km/h 85 % 0 mm
15:46 9.7 °C 7.5 °C 997.9 hPa WNW 9.7 km/h 16.7 km/h 86 % 0 mm
15:51 9.6 °C 7.6 °C 997.9 hPa WNW 5.6 km/h 13 km/h 87 % 0 mm
15:56 9.5 °C 7.6 °C 998.2 hPa NW 6.8 km/h 13 km/h 88 % 0 mm
16:01 9.4 °C 7.7 °C 998.2 hPa WNW 6.3 km/h 14.5 km/h 89 % 0 mm
16:06 9.4 °C 7.7 °C 998.2 hPa WNW 6.3 km/h 13 km/h 89 % 0 mm
16:11 9.3 °C 7.6 °C 998.2 hPa WSW 5.6 km/h 11.1 km/h 89 % 0 mm
16:16 9.3 °C 7.6 °C 998.2 hPa West 12.4 km/h 14.8 km/h 89 % 0 mm
16:21 9.2 °C 7.4 °C 998.5 hPa West 7.1 km/h 14.8 km/h 89 % 0 mm
16:26 9.1 °C 7.4 °C 999.2 hPa West 10.1 km/h 16.7 km/h 89 % 0 mm
16:31 9.1 °C 7.3 °C 999.2 hPa West 7.7 km/h 11.1 km/h 89 % 0 mm
16:36 8.9 °C 7.2 °C 999.5 hPa WNW 12.2 km/h 22.2 km/h 89 % 0 mm
16:41 8.8 °C 6.9 °C 999.5 hPa NW 6.8 km/h 16.7 km/h 88 % 0 mm
16:46 8.7 °C 6.8 °C 999.5 hPa WNW 6.3 km/h 13 km/h 88 % 0 mm
16:52 8.6 °C 6.7 °C 999.5 hPa NW 8.5 km/h 14.8 km/h 88 % 0 mm
16:57 8.4 °C 6.4 °C 999.5 hPa WNW 3.5 km/h 6.4 km/h 87 % 0 mm
17:02 8.3 °C 6.3 °C 999.9 hPa NW 4.8 km/h 9.3 km/h 87 % 0 mm
17:07 8.2 °C 6.1 °C 999.9 hPa WNW 4.3 km/h 13 km/h 87 % 0 mm
17:12 8.1 °C 6 °C 1000.2 hPa WNW 4.2 km/h 18.5 km/h 87 % 0 mm
17:17 7.9 °C 5.7 °C 1000.2 hPa NW 4.3 km/h 14.5 km/h 86 % 0 mm
17:22 7.8 °C 5.4 °C 1000.6 hPa NW 10.9 km/h 18.5 km/h 85 % 0 mm
17:27 7.7 °C 5.1 °C 1000.6 hPa WNW 5.1 km/h 18.5 km/h 84 % 0 mm
17:32 7.6 °C 4.8 °C 1000.9 hPa West 10.1 km/h 18.5 km/h 83 % 0 mm
17:37 7.6 °C 4.7 °C 1001.2 hPa NW 7.1 km/h 16.7 km/h 82 % 0 mm
17:42 7.5 °C 4.4 °C 1001.2 hPa WNW 15.4 km/h 18.5 km/h 81 % 0 mm
17:47 7.5 °C 4.3 °C 1001.2 hPa NW 12.7 km/h 22.2 km/h 80 % 0 mm
17:52 7.4 °C 3.8 °C 1001.2 hPa West 12.1 km/h 22.2 km/h 78 % 0 mm
17:57 7.3 °C 3.9 °C 1001.6 hPa WNW 4.7 km/h 11.1 km/h 79 % 0 mm
18:02 7.3 °C 4.1 °C 1001.9 hPa West 9.5 km/h 9.7 km/h 80 % 0 mm
18:07 7.3 °C 4.2 °C 1002.3 hPa WNW 5.6 km/h 8 km/h 81 % 0 mm
18:13 7.3 °C 4.2 °C 1001.9 hPa WNW 9.2 km/h 14.8 km/h 81 % 0 mm
18:18 7.2 °C 3.9 °C 1002.3 hPa West 6.8 km/h 25.9 km/h 80 % 0 mm
18:23 7 °C 3.4 °C 1002.6 hPa West 10.8 km/h 27.8 km/h 78 % 0 mm
18:28 6.8 °C 2.9 °C 1002.9 hPa NW 10.6 km/h 20.4 km/h 76 % 0 mm
18:33 6.8 °C 2.7 °C 1003.3 hPa NNW 12.2 km/h 20.4 km/h 75 % 0 mm
18:38 6.7 °C 2.6 °C 1003.3 hPa NNW 10.6 km/h 20.4 km/h 75 % 0 mm
18:43 6.6 °C 2.6 °C 1003.6 hPa NW 11.9 km/h 18.5 km/h 76 % 0 mm
18:48 6.5 °C 2.6 °C 1003.6 hPa NW 7.6 km/h 13 km/h 76 % 0 mm
18:53 6.4 °C 2.5 °C 1003.6 hPa NW 10.9 km/h 18.5 km/h 76 % 0 mm
18:58 6.3 °C 2.4 °C 1003.6 hPa NNW 10.6 km/h 18.5 km/h 76 % 0 mm
19:03 6.3 °C 2.2 °C 1003.6 hPa NNW 6.8 km/h 18.5 km/h 75 % 0 mm
19:08 6.2 °C 2.3 °C 1003.6 hPa NNW 6.4 km/h 14.8 km/h 76 % 0 mm
19:13 6.2 °C 2.2 °C 1003.9 hPa NNW 6 km/h 16.7 km/h 76 % 0 mm
19:18 6.1 °C 2.2 °C 1004.3 hPa NW 10.8 km/h 20.4 km/h 76 % 0 mm
19:23 6 °C 2.1 °C 1004.6 hPa NNW 13 km/h 22.2 km/h 76 % 0 mm
19:28 5.9 °C 1.8 °C 1004.6 hPa NW 10 km/h 18.5 km/h 75 % 0 mm
19:33 5.8 °C 1.7 °C 1005 hPa WNW 12.6 km/h 25.9 km/h 75 % 0 mm
19:38 5.8 °C 1.7 °C 1005 hPa NW 10.5 km/h 22.5 km/h 75 % 0 mm
19:44 5.8 °C 1.5 °C 1005.3 hPa NNW 10.6 km/h 18.5 km/h 74 % 0 mm
19:49 5.7 °C 1.4 °C 1005.6 hPa NW 11.7 km/h 20.4 km/h 74 % 0 mm
19:54 5.7 °C 1.6 °C 1005.6 hPa NW 12.9 km/h 24.1 km/h 75 % 0 mm
19:59 5.6 °C 1.3 °C 1005.6 hPa NNW 10.5 km/h 29.6 km/h 74 % 0 mm
20:04 5.6 °C 1.3 °C 1006 hPa WNW 14.2 km/h 20.4 km/h 74 % 0 mm
20:09 5.5 °C 1.2 °C 1005.6 hPa West 11.4 km/h 25.9 km/h 74 % 0 mm
20:14 5.4 °C 1.1 °C 1006 hPa WNW 8.7 km/h 18.5 km/h 74 % 0 mm
20:19 5.3 °C 0.8 °C 1006.3 hPa NNW 9.5 km/h 14.8 km/h 73 % 0 mm
20:24 5.2 °C 0.8 °C 1006.3 hPa WNW 9.2 km/h 24.1 km/h 73 % 0 mm
20:29 5.2 °C 0.7 °C 1006.3 hPa NW 8.9 km/h 16.7 km/h 73 % 0 mm
20:34 5.1 °C 0.6 °C 1006.7 hPa NW 10.1 km/h 18.5 km/h 73 % 0 mm
20:39 5 °C 0.6 °C 1007 hPa NW 8.5 km/h 18.5 km/h 73 % 0 mm
20:44 4.9 °C 0.5 °C 1007 hPa NW 9 km/h 18.5 km/h 73 % 0 mm
20:49 4.8 °C 0.4 °C 1007.3 hPa NW 8 km/h 16.7 km/h 73 % 0 mm
20:54 4.7 °C 0.3 °C 1007.3 hPa NW 5.1 km/h 16.7 km/h 73 % 0 mm
20:59 4.7 °C 0.1 °C 1007.7 hPa WNW 7.2 km/h 18.5 km/h 72 % 0 mm
21:04 4.6 °C 0 °C 1007.7 hPa NW 8 km/h 20.4 km/h 72 % 0 mm
21:09 4.6 °C -0.1 °C 1007.7 hPa WNW 8.4 km/h 18.5 km/h 72 % 0 mm
21:15 4.5 °C -0.3 °C 1008 hPa WNW 13 km/h 16.1 km/h 71 % 0 mm
21:20 4.4 °C -0.3 °C 1008 hPa WNW 13.7 km/h 20.9 km/h 71 % 0 mm
21:25 4.4 °C -0.6 °C 1008.4 hPa NW 7.4 km/h 14.8 km/h 70 % 0 mm
21:35 4.3 °C -0.7 °C 1008.4 hPa NW 7.9 km/h 14.8 km/h 70 % 0 mm
21:40 4.2 °C -0.6 °C 1008.7 hPa WSW 0.6 km/h 11.1 km/h 71 % 0 mm
21:45 4.1 °C -0.7 °C 1009 hPa WNW 9 km/h 18.5 km/h 71 % 0 mm
21:50 4.1 °C -0.7 °C 1009 hPa WNW 6.6 km/h 9.7 km/h 71 % 0 mm
21:55 3.9 °C -0.8 °C 1009.4 hPa West 4.8 km/h 11.1 km/h 71 % 0 mm
22:00 3.8 °C -0.9 °C 1009.7 hPa NW 8.7 km/h 14.8 km/h 71 % 0 mm
22:05 3.8 °C -0.8 °C 1009.7 hPa WNW 8 km/h 16.1 km/h 72 % 0 mm
22:10 3.7 °C -0.9 °C 1009.7 hPa WNW 7.6 km/h 11.3 km/h 72 % 0 mm
22:15 3.7 °C -1.1 °C 1010 hPa WNW 5.1 km/h 16.7 km/h 71 % 0 mm
22:20 3.6 °C -1.2 °C 1010 hPa WNW 2.3 km/h 7.4 km/h 71 % 0 mm
22:25 3.6 °C -1.2 °C 1010.4 hPa NW 4.5 km/h 16.7 km/h 71 % 0 mm
22:30 3.5 °C -1.3 °C 1010.4 hPa WNW 6 km/h 7.4 km/h 71 % 0 mm
22:35 3.4 °C -1.3 °C 1010.4 hPa NW 1.6 km/h 5.6 km/h 71 % 0 mm
22:40 3.3 °C -1.2 °C 1010.7 hPa NW 2.1 km/h 3.7 km/h 72 % 0 mm
22:45 3.3 °C -1.1 °C 1010.7 hPa NW 3.5 km/h 6.4 km/h 73 % 0 mm
22:51 3.2 °C -1 °C 1010.7 hPa NW 4.8 km/h 11.3 km/h 74 % 0 mm
22:56 3.1 °C -0.9 °C 1010.7 hPa NW 3.2 km/h 11.3 km/h 75 % 0 mm
23:01 2.9 °C -1.2 °C 1011.1 hPa NW 2.4 km/h 5.6 km/h 74 % 0 mm
23:06 2.9 °C -1.3 °C 1011.1 hPa Calm     74 % 0 mm
23:11 2.8 °C -1.2 °C 1011.7 hPa WNW 1.3 km/h 5.6 km/h 75 % 0 mm
23:16 2.7 °C -1.4 °C 1011.7 hPa North 6.4 km/h 11.1 km/h 74 % 0 mm
23:21 2.7 °C -1.9 °C 1011.7 hPa NNW 4.7 km/h 9.3 km/h 72 % 0 mm
23:26 2.6 °C -2 °C 1011.7 hPa NNW 5 km/h 11.1 km/h 72 % 0 mm
23:31 2.6 °C -2 °C 1012.1 hPa NW 2.6 km/h 5.6 km/h 72 % 0 mm
23:36 2.6 °C -2.2 °C 1012.4 hPa WNW 3.2 km/h 9.3 km/h 71 % 0 mm
23:41 2.6 °C -2 °C 1012.4 hPa Calm   1.9 km/h 72 % 0 mm
23:46 2.6 °C -2 °C 1012.4 hPa North 0.3 km/h 1.9 km/h 72 % 0 mm
23:51 2.5 °C -1.8 °C 1012.8 hPa NW 0.6 km/h 5.6 km/h 73 % 0 mm
23:56 2.5 °C -1.7 °C 1012.8 hPa Calm   3.7 km/h 74 % 0 mm
Crab Meadow Weather
Compliments of Weather Underground - 3 mb

Script developed by  Jim McMurry - jmcmurry@mwt.net Adapted for the template by  Wim van der Kuil - Leuven-Template.eu

Humidity: Humidity is the amount of water vapor in the air. The term "humidity" refers to relative humidity. Relative humidity is defined as the amount of water vapor in a sample of air compared to the maximum amount of water vapor the air can hold at any specific temperature in a form of 0 to 100%. Relative humidity is important in forecasting weather. Humidity indicates the likelihood of precipitation, dew, or fog. High humidity makes people feel hotter outside in the summer because it reduces the effectiveness of sweating to cool the body by preventing the evaporation of perspiration from the skin.